sensor_id;sensor_type;location;lat;lon;timestamp;pressure;altitude;pressure_sealevel;temperature;humidity
79077;BME280;68477;42.698;23.342;2024-01-10T00:01:34;96459.59;;;-5.01;76.00
79077;BME280;68477;42.698;23.342;2024-01-10T00:04:00;96457.28;;;-4.82;76.43
79077;BME280;68477;42.698;23.342;2024-01-10T00:06:25;96456.78;;;-4.67;77.06
79077;BME280;68477;42.698;23.342;2024-01-10T00:08:51;96454.63;;;-4.79;76.21
79077;BME280;68477;42.698;23.342;2024-01-10T00:11:17;96461.72;;;-4.87;80.14
79077;BME280;68477;42.698;23.342;2024-01-10T00:13:42;96451.34;;;-4.33;76.85
79077;BME280;68477;42.698;23.342;2024-01-10T00:16:08;96460.88;;;-4.61;77.67
79077;BME280;68477;42.698;23.342;2024-01-10T00:18:34;96457.19;;;-4.28;76.60
79077;BME280;68477;42.698;23.342;2024-01-10T00:20:59;96456.84;;;-4.44;76.59
79077;BME280;68477;42.698;23.342;2024-01-10T00:23:25;96467.16;;;-4.70;76.72
79077;BME280;68477;42.698;23.342;2024-01-10T00:25:51;96468.91;;;-4.46;76.90
79077;BME280;68477;42.698;23.342;2024-01-10T00:28:16;96468.63;;;-4.63;77.26
79077;BME280;68477;42.698;23.342;2024-01-10T00:30:43;96465.44;;;-4.45;77.47
79077;BME280;68477;42.698;23.342;2024-01-10T00:33:09;96468.28;;;-4.52;76.41
79077;BME280;68477;42.698;23.342;2024-01-10T00:35:34;96469.53;;;-4.14;75.03
79077;BME280;68477;42.698;23.342;2024-01-10T00:38:01;96462.56;;;-4.35;74.87
79077;BME280;68477;42.698;23.342;2024-01-10T00:40:27;96466.75;;;-4.08;74.39
79077;BME280;68477;42.698;23.342;2024-01-10T00:42:52;96466.50;;;-4.25;75.16
79077;BME280;68477;42.698;23.342;2024-01-10T00:45:18;96473.09;;;-4.43;75.81
79077;BME280;68477;42.698;23.342;2024-01-10T00:47:43;96472.84;;;-4.35;75.51
79077;BME280;68477;42.698;23.342;2024-01-10T00:50:09;96464.47;;;-4.16;76.17
79077;BME280;68477;42.698;23.342;2024-01-10T00:52:35;96472.84;;;-3.87;73.89
79077;BME280;68477;42.698;23.342;2024-01-10T00:55:01;96470.84;;;-4.02;74.60
79077;BME280;68477;42.698;23.342;2024-01-10T00:57:27;96467.69;;;-4.11;75.73
79077;BME280;68477;42.698;23.342;2024-01-10T00:59:52;96469.31;;;-4.33;76.10
79077;BME280;68477;42.698;23.342;2024-01-10T01:02:18;96477.75;;;-4.04;75.49
79077;BME280;68477;42.698;23.342;2024-01-10T01:04:43;96474.19;;;-4.00;75.26
79077;BME280;68477;42.698;23.342;2024-01-10T01:07:09;96476.00;;;-4.54;75.86
79077;BME280;68477;42.698;23.342;2024-01-10T01:09:34;96465.38;;;-4.43;76.96
79077;BME280;68477;42.698;23.342;2024-01-10T01:12:00;96464.81;;;-4.26;75.71
79077;BME280;68477;42.698;23.342;2024-01-10T01:14:26;96460.75;;;-4.07;73.54
79077;BME280;68477;42.698;23.342;2024-01-10T01:16:51;96462.91;;;-4.21;74.38
79077;BME280;68477;42.698;23.342;2024-01-10T01:19:17;96471.81;;;-4.56;75.53
79077;BME280;68477;42.698;23.342;2024-01-10T01:21:43;96466.09;;;-4.38;73.70
79077;BME280;68477;42.698;23.342;2024-01-10T01:24:08;96459.41;;;-4.44;74.92
79077;BME280;68477;42.698;23.342;2024-01-10T01:26:34;96458.38;;;-4.38;74.54
79077;BME280;68477;42.698;23.342;2024-01-10T01:28:59;96460.59;;;-4.27;74.68
79077;BME280;68477;42.698;23.342;2024-01-10T01:31:25;96459.63;;;-4.50;74.52
79077;BME280;68477;42.698;23.342;2024-01-10T01:33:50;96449.06;;;-4.41;73.71
79077;BME280;68477;42.698;23.342;2024-01-10T01:36:16;96449.47;;;-4.28;73.85
79077;BME280;68477;42.698;23.342;2024-01-10T01:38:42;96444.38;;;-4.04;74.67
79077;BME280;68477;42.698;23.342;2024-01-10T01:41:08;96458.88;;;-4.03;74.59
79077;BME280;68477;42.698;23.342;2024-01-10T01:43:33;96446.72;;;-4.23;74.80
79077;BME280;68477;42.698;23.342;2024-01-10T01:46:00;96455.13;;;-4.18;74.53
79077;BME280;68477;42.698;23.342;2024-01-10T01:48:26;96453.19;;;-4.12;73.86
79077;BME280;68477;42.698;23.342;2024-01-10T01:50:56;96454.78;;;-4.09;74.01
79077;BME280;68477;42.698;23.342;2024-01-10T01:53:22;96453.50;;;-4.21;73.24
79077;BME280;68477;42.698;23.342;2024-01-10T01:55:48;96447.22;;;-4.37;73.86
79077;BME280;68477;42.698;23.342;2024-01-10T01:58:14;96445.78;;;-4.21;72.80
79077;BME280;68477;42.698;23.342;2024-01-10T02:00:40;96439.09;;;-4.25;74.50
79077;BME280;68477;42.698;23.342;2024-01-10T02:03:08;96438.38;;;-4.28;73.85
79077;BME280;68477;42.698;23.342;2024-01-10T02:05:34;96436.59;;;-4.26;73.36
79077;BME280;68477;42.698;23.342;2024-01-10T02:07:59;96435.34;;;-4.40;73.59
79077;BME280;68477;42.698;23.342;2024-01-10T02:10:25;96429.19;;;-4.35;73.36
79077;BME280;68477;42.698;23.342;2024-01-10T02:12:52;96431.63;;;-4.32;73.56
79077;BME280;68477;42.698;23.342;2024-01-10T02:15:17;96430.06;;;-4.12;72.61
79077;BME280;68477;42.698;23.342;2024-01-10T02:17:43;96424.34;;;-4.20;72.00
79077;BME280;68477;42.698;23.342;2024-01-10T02:20:11;96424.09;;;-4.12;72.13
79077;BME280;68477;42.698;23.342;2024-01-10T02:22:37;96422.34;;;-4.12;72.32
79077;BME280;68477;42.698;23.342;2024-01-10T02:25:05;96427.16;;;-4.26;72.47
79077;BME280;68477;42.698;23.342;2024-01-10T02:27:32;96422.63;;;-4.19;71.81
79077;BME280;68477;42.698;23.342;2024-01-10T02:29:58;96427.44;;;-4.10;71.15
79077;BME280;68477;42.698;23.342;2024-01-10T02:32:24;96427.34;;;-4.57;71.42
79077;BME280;68477;42.698;23.342;2024-01-10T02:34:50;96425.72;;;-4.84;73.32
79077;BME280;68477;42.698;23.342;2024-01-10T02:37:15;96423.38;;;-4.65;72.87
79077;BME280;68477;42.698;23.342;2024-01-10T02:39:41;96422.47;;;-4.64;73.42
79077;BME280;68477;42.698;23.342;2024-01-10T02:42:06;96425.00;;;-4.89;73.48
79077;BME280;68477;42.698;23.342;2024-01-10T02:44:32;96428.34;;;-4.86;73.56
79077;BME280;68477;42.698;23.342;2024-01-10T02:46:57;96436.38;;;-4.96;73.56
79077;BME280;68477;42.698;23.342;2024-01-10T02:49:23;96434.72;;;-4.97;74.23
79077;BME280;68477;42.698;23.342;2024-01-10T02:51:48;96434.00;;;-5.03;73.89
79077;BME280;68477;42.698;23.342;2024-01-10T02:54:14;96427.53;;;-4.61;71.97
79077;BME280;68477;42.698;23.342;2024-01-10T02:56:39;96427.72;;;-4.43;70.58
79077;BME280;68477;42.698;23.342;2024-01-10T02:59:04;96430.03;;;-4.35;69.85
79077;BME280;68477;42.698;23.342;2024-01-10T03:01:30;96430.44;;;-4.22;69.06
79077;BME280;68477;42.698;23.342;2024-01-10T03:03:55;96424.31;;;-4.43;70.35
79077;BME280;68477;42.698;23.342;2024-01-10T03:06:21;96418.13;;;-4.13;68.33
79077;BME280;68477;42.698;23.342;2024-01-10T03:08:46;96416.75;;;-4.23;69.61
79077;BME280;68477;42.698;23.342;2024-01-10T03:11:12;96427.88;;;-4.22;68.08
79077;BME280;68477;42.698;23.342;2024-01-10T03:13:37;96427.47;;;-4.35;68.38
79077;BME280;68477;42.698;23.342;2024-01-10T03:16:04;96427.97;;;-4.25;68.75
79077;BME280;68477;42.698;23.342;2024-01-10T03:18:30;96429.00;;;-4.31;67.95
79077;BME280;68477;42.698;23.342;2024-01-10T03:20:55;96433.97;;;-4.25;68.14
79077;BME280;68477;42.698;23.342;2024-01-10T03:23:21;96438.44;;;-4.31;68.70
79077;BME280;68477;42.698;23.342;2024-01-10T03:25:47;96439.66;;;-4.17;68.59
79077;BME280;68477;42.698;23.342;2024-01-10T03:28:16;96437.44;;;-4.51;70.16
79077;BME280;68477;42.698;23.342;2024-01-10T03:30:44;96438.81;;;-4.67;70.52
79077;BME280;68477;42.698;23.342;2024-01-10T03:33:10;96430.69;;;-4.55;69.75
79077;BME280;68477;42.698;23.342;2024-01-10T03:35:36;96443.00;;;-4.64;71.73
79077;BME280;68477;42.698;23.342;2024-01-10T03:38:02;96435.38;;;-4.41;68.97
79077;BME280;68477;42.698;23.342;2024-01-10T03:40:27;96444.81;;;-4.42;69.16
79077;BME280;68477;42.698;23.342;2024-01-10T03:42:53;96440.91;;;-4.53;69.85
79077;BME280;68477;42.698;23.342;2024-01-10T03:45:18;96435.41;;;-4.43;68.63
79077;BME280;68477;42.698;23.342;2024-01-10T03:47:47;96438.25;;;-5.02;70.74
79077;BME280;68477;42.698;23.342;2024-01-10T03:50:18;96439.47;;;-4.35;69.59
79077;BME280;68477;42.698;23.342;2024-01-10T03:52:44;96435.81;;;-4.28;68.66
79077;BME280;68477;42.698;23.342;2024-01-10T03:55:12;96432.28;;;-4.26;68.42
79077;BME280;68477;42.698;23.342;2024-01-10T04:00:22;96441.84;;;-4.06;68.86
79077;BME280;68477;42.698;23.342;2024-01-10T04:02:47;96443.78;;;-4.13;71.23
79077;BME280;68477;42.698;23.342;2024-01-10T04:05:13;96444.16;;;-4.23;69.37
79077;BME280;68477;42.698;23.342;2024-01-10T04:07:42;96445.84;;;-4.47;70.90
79077;BME280;68477;42.698;23.342;2024-01-10T04:10:12;96450.19;;;-4.24;68.64
79077;BME280;68477;42.698;23.342;2024-01-10T04:12:45;96452.59;;;-4.20;68.54
79077;BME280;68477;42.698;23.342;2024-01-10T04:15:12;96454.78;;;-4.09;69.20
79077;BME280;68477;42.698;23.342;2024-01-10T04:17:37;96452.13;;;-4.31;69.38
79077;BME280;68477;42.698;23.342;2024-01-10T04:20:04;96452.31;;;-4.35;69.32
79077;BME280;68477;42.698;23.342;2024-01-10T04:22:30;96453.72;;;-4.78;72.48
79077;BME280;68477;42.698;23.342;2024-01-10T04:24:59;96458.75;;;-4.49;70.89
79077;BME280;68477;42.698;23.342;2024-01-10T04:27:25;96461.78;;;-4.37;71.00
79077;BME280;68477;42.698;23.342;2024-01-10T04:29:50;96462.06;;;-4.72;72.91
79077;BME280;68477;42.698;23.342;2024-01-10T04:32:16;96470.50;;;-4.42;72.42
79077;BME280;68477;42.698;23.342;2024-01-10T04:34:41;96465.91;;;-4.33;71.32
79077;BME280;68477;42.698;23.342;2024-01-10T04:37:07;96473.56;;;-4.32;69.84
79077;BME280;68477;42.698;23.342;2024-01-10T04:39:51;96472.72;;;-4.32;70.49
79077;BME280;68477;42.698;23.342;2024-01-10T04:42:16;96478.03;;;-4.37;70.38
79077;BME280;68477;42.698;23.342;2024-01-10T04:44:42;96485.59;;;-4.59;71.27
79077;BME280;68477;42.698;23.342;2024-01-10T04:47:07;96478.63;;;-4.55;71.91
79077;BME280;68477;42.698;23.342;2024-01-10T04:49:33;96480.38;;;-4.31;70.71
79077;BME280;68477;42.698;23.342;2024-01-10T04:52:00;96480.91;;;-4.21;70.17
79077;BME280;68477;42.698;23.342;2024-01-10T04:54:26;96493.50;;;-4.38;71.06
79077;BME280;68477;42.698;23.342;2024-01-10T04:56:51;96480.81;;;-4.18;69.52
79077;BME280;68477;42.698;23.342;2024-01-10T04:59:17;96496.53;;;-4.27;70.00
79077;BME280;68477;42.698;23.342;2024-01-10T05:01:42;96487.22;;;-4.56;71.67
79077;BME280;68477;42.698;23.342;2024-01-10T05:04:08;96487.81;;;-4.23;70.42
79077;BME280;68477;42.698;23.342;2024-01-10T05:06:36;96493.91;;;-4.01;68.82
79077;BME280;68477;42.698;23.342;2024-01-10T05:09:01;96492.94;;;-4.48;70.67
79077;BME280;68477;42.698;23.342;2024-01-10T05:11:27;96484.53;;;-4.27;67.85
79077;BME280;68477;42.698;23.342;2024-01-10T05:13:53;96488.59;;;-4.21;67.15
79077;BME280;68477;42.698;23.342;2024-01-10T05:16:19;96489.91;;;-4.10;67.45
79077;BME280;68477;42.698;23.342;2024-01-10T05:18:45;96493.31;;;-4.09;68.71
79077;BME280;68477;42.698;23.342;2024-01-10T05:21:10;96499.19;;;-4.30;69.28
79077;BME280;68477;42.698;23.342;2024-01-10T05:23:36;96499.66;;;-4.44;69.70
79077;BME280;68477;42.698;23.342;2024-01-10T05:26:04;96499.94;;;-4.53;69.56
79077;BME280;68477;42.698;23.342;2024-01-10T05:28:30;96506.44;;;-4.68;69.29
79077;BME280;68477;42.698;23.342;2024-01-10T05:30:57;96498.56;;;-4.37;68.08
79077;BME280;68477;42.698;23.342;2024-01-10T05:33:22;96501.25;;;-4.40;67.72
79077;BME280;68477;42.698;23.342;2024-01-10T05:35:48;96510.84;;;-5.00;68.82
79077;BME280;68477;42.698;23.342;2024-01-10T05:38:14;96519.47;;;-4.74;68.42
79077;BME280;68477;42.698;23.342;2024-01-10T05:40:39;96517.88;;;-4.78;68.12
79077;BME280;68477;42.698;23.342;2024-01-10T05:43:07;96512.94;;;-4.84;68.05
79077;BME280;68477;42.698;23.342;2024-01-10T05:45:32;96508.44;;;-5.04;67.81
79077;BME280;68477;42.698;23.342;2024-01-10T05:47:58;96519.31;;;-4.70;67.30
79077;BME280;68477;42.698;23.342;2024-01-10T05:50:24;96517.56;;;-4.43;67.34
79077;BME280;68477;42.698;23.342;2024-01-10T05:52:49;96508.63;;;-4.31;66.27
79077;BME280;68477;42.698;23.342;2024-01-10T05:55:15;96513.66;;;-4.03;64.08
79077;BME280;68477;42.698;23.342;2024-01-10T05:57:42;96517.13;;;-4.29;63.33
79077;BME280;68477;42.698;23.342;2024-01-10T06:00:08;96517.38;;;-4.36;63.76
79077;BME280;68477;42.698;23.342;2024-01-10T06:02:39;96522.47;;;-4.35;61.76
79077;BME280;68477;42.698;23.342;2024-01-10T06:05:13;96517.91;;;-4.27;62.76
79077;BME280;68477;42.698;23.342;2024-01-10T06:07:40;96525.72;;;-4.30;62.69
79077;BME280;68477;42.698;23.342;2024-01-10T06:10:08;96526.81;;;-4.37;62.72
79077;BME280;68477;42.698;23.342;2024-01-10T06:12:35;96523.78;;;-4.23;61.75
79077;BME280;68477;42.698;23.342;2024-01-10T06:15:01;96536.88;;;-4.57;61.91
79077;BME280;68477;42.698;23.342;2024-01-10T06:17:26;96537.03;;;-4.62;64.49
79077;BME280;68477;42.698;23.342;2024-01-10T06:19:52;96540.19;;;-4.80;65.69
79077;BME280;68477;42.698;23.342;2024-01-10T06:22:18;96534.81;;;-5.01;65.09
79077;BME280;68477;42.698;23.342;2024-01-10T06:24:44;96541.75;;;-4.76;64.19
79077;BME280;68477;42.698;23.342;2024-01-10T06:27:09;96545.06;;;-4.46;62.58
79077;BME280;68477;42.698;23.342;2024-01-10T06:29:36;96544.19;;;-4.19;61.90
79077;BME280;68477;42.698;23.342;2024-01-10T06:32:02;96555.41;;;-4.48;61.59
79077;BME280;68477;42.698;23.342;2024-01-10T06:34:28;96551.78;;;-4.16;62.47
79077;BME280;68477;42.698;23.342;2024-01-10T06:36:53;96554.72;;;-4.53;63.26
79077;BME280;68477;42.698;23.342;2024-01-10T06:39:19;96552.97;;;-4.26;62.76
79077;BME280;68477;42.698;23.342;2024-01-10T06:41:48;96564.69;;;-4.17;61.57
79077;BME280;68477;42.698;23.342;2024-01-10T06:44:14;96567.41;;;-4.48;60.17
79077;BME280;68477;42.698;23.342;2024-01-10T06:46:40;96564.72;;;-4.45;60.42
79077;BME280;68477;42.698;23.342;2024-01-10T06:49:05;96565.09;;;-4.31;60.91
79077;BME280;68477;42.698;23.342;2024-01-10T06:51:32;96570.13;;;-4.53;62.67
79077;BME280;68477;42.698;23.342;2024-01-10T06:53:58;96564.44;;;-4.36;61.54
79077;BME280;68477;42.698;23.342;2024-01-10T06:56:32;96574.09;;;-4.44;61.75
79077;BME280;68477;42.698;23.342;2024-01-10T06:58:58;96573.03;;;-4.37;60.67
79077;BME280;68477;42.698;23.342;2024-01-10T07:01:26;96571.78;;;-4.52;59.23
79077;BME280;68477;42.698;23.342;2024-01-10T07:03:54;96574.00;;;-4.68;60.06
79077;BME280;68477;42.698;23.342;2024-01-10T07:06:21;96578.19;;;-4.65;60.44
79077;BME280;68477;42.698;23.342;2024-01-10T07:08:48;96571.09;;;-4.30;59.05
79077;BME280;68477;42.698;23.342;2024-01-10T07:11:15;96580.06;;;-4.44;59.49
79077;BME280;68477;42.698;23.342;2024-01-10T07:13:41;96580.88;;;-4.42;60.07
79077;BME280;68477;42.698;23.342;2024-01-10T07:16:07;96591.22;;;-4.45;58.56
79077;BME280;68477;42.698;23.342;2024-01-10T07:18:32;96586.81;;;-4.40;58.63
79077;BME280;68477;42.698;23.342;2024-01-10T07:20:58;96587.09;;;-4.49;59.25
79077;BME280;68477;42.698;23.342;2024-01-10T07:23:25;96588.28;;;-4.32;59.23
79077;BME280;68477;42.698;23.342;2024-01-10T07:25:51;96590.00;;;-4.59;60.17
79077;BME280;68477;42.698;23.342;2024-01-10T07:28:17;96597.47;;;-4.25;59.67
79077;BME280;68477;42.698;23.342;2024-01-10T07:30:43;96597.56;;;-3.77;57.54
79077;BME280;68477;42.698;23.342;2024-01-10T07:33:10;96582.81;;;-3.97;56.61
79077;BME280;68477;42.698;23.342;2024-01-10T07:35:35;96602.28;;;-3.65;57.20
79077;BME280;68477;42.698;23.342;2024-01-10T07:38:01;96604.81;;;-3.40;56.62
79077;BME280;68477;42.698;23.342;2024-01-10T07:40:27;96611.09;;;-3.47;56.94
79077;BME280;68477;42.698;23.342;2024-01-10T07:42:52;96607.91;;;-3.30;56.49
79077;BME280;68477;42.698;23.342;2024-01-10T07:45:18;96603.97;;;-3.39;54.46
79077;BME280;68477;42.698;23.342;2024-01-10T07:47:43;96605.94;;;-2.77;54.90
79077;BME280;68477;42.698;23.342;2024-01-10T07:50:10;96606.25;;;-2.63;53.39
79077;BME280;68477;42.698;23.342;2024-01-10T07:52:36;96605.63;;;-2.91;53.32
79077;BME280;68477;42.698;23.342;2024-01-10T07:55:02;96605.03;;;-2.76;53.78
79077;BME280;68477;42.698;23.342;2024-01-10T07:57:30;96604.88;;;-2.71;52.04
79077;BME280;68477;42.698;23.342;2024-01-10T07:59:57;96606.94;;;-2.57;50.41
79077;BME280;68477;42.698;23.342;2024-01-10T08:02:22;96605.25;;;-2.58;50.95
79077;BME280;68477;42.698;23.342;2024-01-10T08:04:48;96606.75;;;-2.53;50.88
79077;BME280;68477;42.698;23.342;2024-01-10T08:07:13;96600.03;;;-3.49;52.76
79077;BME280;68477;42.698;23.342;2024-01-10T08:09:39;96598.38;;;-3.03;50.13
79077;BME280;68477;42.698;23.342;2024-01-10T08:12:04;96609.91;;;-3.13;52.40
79077;BME280;68477;42.698;23.342;2024-01-10T08:14:30;96613.41;;;-2.47;51.05
79077;BME280;68477;42.698;23.342;2024-01-10T08:16:55;96603.63;;;-2.83;50.92
79077;BME280;68477;42.698;23.342;2024-01-10T08:19:29;96612.41;;;-2.88;52.27
79077;BME280;68477;42.698;23.342;2024-01-10T08:21:55;96606.34;;;-3.34;53.13
79077;BME280;68477;42.698;23.342;2024-01-10T08:24:20;96604.50;;;-2.84;52.94
79077;BME280;68477;42.698;23.342;2024-01-10T08:26:47;96617.59;;;-3.13;52.38
79077;BME280;68477;42.698;23.342;2024-01-10T08:29:20;96617.13;;;-2.78;52.59
79077;BME280;68477;42.698;23.342;2024-01-10T08:31:46;96609.31;;;-2.31;52.46
79077;BME280;68477;42.698;23.342;2024-01-10T08:34:11;96610.03;;;-2.95;56.24
79077;BME280;68477;42.698;23.342;2024-01-10T08:36:37;96620.97;;;-2.00;52.07
79077;BME280;68477;42.698;23.342;2024-01-10T08:39:03;96605.91;;;-1.49;49.08
79077;BME280;68477;42.698;23.342;2024-01-10T08:41:29;96605.19;;;-1.52;49.67
79077;BME280;68477;42.698;23.342;2024-01-10T08:43:55;96608.22;;;-1.42;47.96
79077;BME280;68477;42.698;23.342;2024-01-10T08:46:21;96618.84;;;-1.30;48.16
79077;BME280;68477;42.698;23.342;2024-01-10T08:48:47;96617.03;;;-0.89;46.42
79077;BME280;68477;42.698;23.342;2024-01-10T08:51:13;96619.69;;;-0.71;47.52
79077;BME280;68477;42.698;23.342;2024-01-10T08:53:41;96618.13;;;-0.38;47.16
79077;BME280;68477;42.698;23.342;2024-01-10T08:56:07;96609.06;;;-1.42;47.77
79077;BME280;68477;42.698;23.342;2024-01-10T08:58:34;96614.34;;;-1.86;51.28
79077;BME280;68477;42.698;23.342;2024-01-10T09:01:00;96614.03;;;-1.98;51.66
79077;BME280;68477;42.698;23.342;2024-01-10T09:03:26;96600.75;;;-0.72;48.39
79077;BME280;68477;42.698;23.342;2024-01-10T09:05:51;96611.47;;;0.12;47.82
79077;BME280;68477;42.698;23.342;2024-01-10T09:08:17;96602.44;;;-0.52;47.23
79077;BME280;68477;42.698;23.342;2024-01-10T09:10:43;96605.06;;;0.36;48.38
79077;BME280;68477;42.698;23.342;2024-01-10T09:13:09;96607.34;;;0.25;43.57
79077;BME280;68477;42.698;23.342;2024-01-10T09:15:34;96604.72;;;1.41;43.29
79077;BME280;68477;42.698;23.342;2024-01-10T09:18:00;96605.00;;;1.53;43.82
79077;BME280;68477;42.698;23.342;2024-01-10T09:20:26;96606.97;;;0.83;45.68
79077;BME280;68477;42.698;23.342;2024-01-10T09:22:52;96601.63;;;0.18;46.08
79077;BME280;68477;42.698;23.342;2024-01-10T09:25:18;96597.69;;;-0.42;47.48
79077;BME280;68477;42.698;23.342;2024-01-10T09:27:43;96603.75;;;-0.07;48.84
79077;BME280;68477;42.698;23.342;2024-01-10T09:30:10;96598.22;;;0.85;45.09
79077;BME280;68477;42.698;23.342;2024-01-10T09:32:36;96597.69;;;0.79;43.00
79077;BME280;68477;42.698;23.342;2024-01-10T09:35:03;96585.22;;;1.66;44.74
79077;BME280;68477;42.698;23.342;2024-01-10T09:37:28;96592.53;;;1.59;41.95
79077;BME280;68477;42.698;23.342;2024-01-10T09:39:54;96590.06;;;1.88;41.33
79077;BME280;68477;42.698;23.342;2024-01-10T09:42:20;96594.06;;;0.99;43.23
79077;BME280;68477;42.698;23.342;2024-01-10T09:44:53;96592.88;;;0.38;47.69
79077;BME280;68477;42.698;23.342;2024-01-10T09:47:20;96586.91;;;0.53;45.56
79077;BME280;68477;42.698;23.342;2024-01-10T09:49:46;96590.69;;;2.37;43.48
79077;BME280;68477;42.698;23.342;2024-01-10T09:52:18;96589.09;;;2.79;41.15
79077;BME280;68477;42.698;23.342;2024-01-10T09:54:47;96586.88;;;2.87;40.40
79077;BME280;68477;42.698;23.342;2024-01-10T09:57:18;96577.13;;;2.90;39.18
79077;BME280;68477;42.698;23.342;2024-01-10T09:59:43;96576.56;;;2.71;39.27
79077;BME280;68477;42.698;23.342;2024-01-10T10:02:09;96567.84;;;2.72;38.17
79077;BME280;68477;42.698;23.342;2024-01-10T10:04:36;96567.19;;;2.69;41.15
79077;BME280;68477;42.698;23.342;2024-01-10T10:07:05;96568.44;;;1.57;42.78
79077;BME280;68477;42.698;23.342;2024-01-10T10:09:30;96565.56;;;0.83;45.25
79077;BME280;68477;42.698;23.342;2024-01-10T10:11:58;96559.31;;;1.66;42.50
79077;BME280;68477;42.698;23.342;2024-01-10T10:14:28;96560.25;;;2.83;40.82
79077;BME280;68477;42.698;23.342;2024-01-10T10:16:54;96554.09;;;3.13;39.39
79077;BME280;68477;42.698;23.342;2024-01-10T10:19:23;96549.31;;;3.75;39.29
79077;BME280;68477;42.698;23.342;2024-01-10T10:21:50;96540.13;;;3.28;39.17
79077;BME280;68477;42.698;23.342;2024-01-10T10:24:16;96540.94;;;3.02;40.08
79077;BME280;68477;42.698;23.342;2024-01-10T10:26:43;96542.28;;;1.30;43.22
79077;BME280;68477;42.698;23.342;2024-01-10T10:29:09;96541.84;;;1.54;44.73
79077;BME280;68477;42.698;23.342;2024-01-10T10:31:35;96531.78;;;2.23;45.06
79077;BME280;68477;42.698;23.342;2024-01-10T10:34:01;96531.75;;;3.10;39.23
79077;BME280;68477;42.698;23.342;2024-01-10T10:36:31;96528.31;;;2.96;38.86
79077;BME280;68477;42.698;23.342;2024-01-10T10:38:59;96521.25;;;3.39;40.94
79077;BME280;68477;42.698;23.342;2024-01-10T10:41:30;96513.13;;;2.75;43.37
79077;BME280;68477;42.698;23.342;2024-01-10T10:43:56;96512.72;;;3.37;39.69
79077;BME280;68477;42.698;23.342;2024-01-10T10:46:23;96510.06;;;1.96;42.81
79077;BME280;68477;42.698;23.342;2024-01-10T10:48:52;96505.78;;;2.96;41.52
79077;BME280;68477;42.698;23.342;2024-01-10T10:51:25;96503.25;;;2.38;43.03
79077;BME280;68477;42.698;23.342;2024-01-10T10:53:54;96500.81;;;3.06;42.38
79077;BME280;68477;42.698;23.342;2024-01-10T10:56:20;96498.31;;;3.04;43.25
79077;BME280;68477;42.698;23.342;2024-01-10T10:58:46;96488.75;;;3.05;41.99
79077;BME280;68477;42.698;23.342;2024-01-10T11:01:13;96479.03;;;1.94;43.80
79077;BME280;68477;42.698;23.342;2024-01-10T11:03:40;96481.81;;;1.45;47.19
79077;BME280;68477;42.698;23.342;2024-01-10T11:06:07;96486.13;;;1.91;45.43
79077;BME280;68477;42.698;23.342;2024-01-10T11:08:38;96474.25;;;2.31;43.96
79077;BME280;68477;42.698;23.342;2024-01-10T11:11:07;96485.25;;;2.06;46.42
79077;BME280;68477;42.698;23.342;2024-01-10T11:14:01;96480.56;;;1.53;46.77
79077;BME280;68477;42.698;23.342;2024-01-10T11:22:37;96470.81;;;2.59;44.26
79077;BME280;68477;42.698;23.342;2024-01-10T11:25:08;96463.56;;;2.21;45.51
79077;BME280;68477;42.698;23.342;2024-01-10T11:27:36;96462.41;;;1.53;44.97
79077;BME280;68477;42.698;23.342;2024-01-10T11:30:02;96453.84;;;2.11;44.75
79077;BME280;68477;42.698;23.342;2024-01-10T11:32:30;96458.28;;;2.09;42.10
79077;BME280;68477;42.698;23.342;2024-01-10T11:34:58;96456.09;;;3.94;43.62
79077;BME280;68477;42.698;23.342;2024-01-10T11:37:28;96449.41;;;3.77;44.41
79077;BME280;68477;42.698;23.342;2024-01-10T11:39:55;96443.13;;;4.45;40.57
79077;BME280;68477;42.698;23.342;2024-01-10T11:42:24;96437.81;;;3.56;39.60
79077;BME280;68477;42.698;23.342;2024-01-10T11:45:05;96448.13;;;4.23;39.60
79077;BME280;68477;42.698;23.342;2024-01-10T11:47:31;96440.00;;;3.22;41.99
79077;BME280;68477;42.698;23.342;2024-01-10T11:49:58;96429.41;;;5.99;38.15
79077;BME280;68477;42.698;23.342;2024-01-10T11:52:31;96421.56;;;4.92;38.77
79077;BME280;68477;42.698;23.342;2024-01-10T11:54:57;96426.38;;;4.73;39.85
79077;BME280;68477;42.698;23.342;2024-01-10T11:57:26;96427.09;;;6.86;37.57
79077;BME280;68477;42.698;23.342;2024-01-10T11:59:56;96421.00;;;7.08;35.16
79077;BME280;68477;42.698;23.342;2024-01-10T12:02:23;96418.28;;;7.09;36.16
79077;BME280;68477;42.698;23.342;2024-01-10T12:04:53;96411.16;;;4.80;39.63
79077;BME280;68477;42.698;23.342;2024-01-10T12:07:20;96411.66;;;4.35;41.34
79077;BME280;68477;42.698;23.342;2024-01-10T12:09:46;96408.75;;;5.61;39.79
79077;BME280;68477;42.698;23.342;2024-01-10T12:12:13;96401.94;;;4.87;40.78
79077;BME280;68477;42.698;23.342;2024-01-10T12:14:40;96405.84;;;4.19;43.47
79077;BME280;68477;42.698;23.342;2024-01-10T12:17:06;96397.63;;;5.11;40.73
79077;BME280;68477;42.698;23.342;2024-01-10T12:19:34;96398.97;;;4.31;41.60
79077;BME280;68477;42.698;23.342;2024-01-10T12:22:01;96394.13;;;5.00;41.07
79077;BME280;68477;42.698;23.342;2024-01-10T12:24:30;96396.97;;;4.22;42.89
79077;BME280;68477;42.698;23.342;2024-01-10T12:26:55;96396.91;;;5.33;41.43
79077;BME280;68477;42.698;23.342;2024-01-10T12:29:21;96395.13;;;6.93;39.54
79077;BME280;68477;42.698;23.342;2024-01-10T12:31:48;96392.78;;;6.12;38.49
79077;BME280;68477;42.698;23.342;2024-01-10T12:34:13;96392.34;;;5.24;42.16
79077;BME280;68477;42.698;23.342;2024-01-10T12:36:41;96394.44;;;7.23;38.57
79077;BME280;68477;42.698;23.342;2024-01-10T12:39:06;96401.97;;;5.94;41.20
79077;BME280;68477;42.698;23.342;2024-01-10T12:41:33;96398.38;;;5.83;41.89
79077;BME280;68477;42.698;23.342;2024-01-10T12:44:00;96394.28;;;5.92;40.57
79077;BME280;68477;42.698;23.342;2024-01-10T12:46:29;96397.88;;;6.25;41.36
79077;BME280;68477;42.698;23.342;2024-01-10T12:49:14;96402.50;;;6.55;38.77
79077;BME280;68477;42.698;23.342;2024-01-10T12:51:41;96398.91;;;6.00;39.01
79077;BME280;68477;42.698;23.342;2024-01-10T12:54:06;96396.69;;;6.40;38.17
79077;BME280;68477;42.698;23.342;2024-01-10T12:56:32;96401.66;;;6.88;39.36
79077;BME280;68477;42.698;23.342;2024-01-10T12:58:58;96395.28;;;6.47;38.08